Time;durP1;ratioP1;P1;durP2;ratioP2;P2;SDS_P1;SDS_P2;PMS_P1;PMS_P2;Temp;Humidity;BMP_temperature;BMP_pressure;BME280_temperature;BME280_humidity;BME280_pressure;Samples;Min_cycle;Max_cycle;Signal;HPM_P1;HPM_P2
2023/08/08 00:07:52;;;;;;;1999.90;999.90;;;;;;;;;;6663815;89;20209;-78
2023/08/08 00:17:53;;;;;;;1999.90;999.90;;;;;;;;;;6657563;89;20191;-79
2023/08/08 00:27:54;;;;;;;1999.90;999.90;;;;;;;;;;6674007;89;20310;-78
2023/08/08 00:37:55;;;;;;;1999.90;999.90;;;;;;;;;;6659719;88;20343;-78
2023/08/08 00:47:56;;;;;;;1999.90;999.90;;;;;;;;;;6666121;89;20256;-78
2023/08/08 00:57:57;;;;;;;1999.90;999.90;;;;;;;;;;6661892;88;20224;-79
2023/08/08 01:08:03;;;;;;;1999.90;999.90;;;;;;;;;;6650996;89;20237;-79
2023/08/08 01:18:04;;;;;;;;;;;;;;;;;;6591425;89;20205;-79
2023/08/08 01:28:05;;;;;;;1999.90;999.90;;;;;;;;;;6608224;89;20094;-78
2023/08/08 01:38:10;;;;;;;1999.90;999.90;;;;;;;;;;6593710;89;20575;-79
2023/08/08 01:48:12;;;;;;;1999.90;999.90;;;;;;;;;;6589296;89;20207;-78
2023/08/08 01:58:12;;;;;;;1999.90;999.90;;;;;;;;;;6591467;89;20194;-79
2023/08/08 02:08:14;;;;;;;1999.90;999.90;;;;;;;;;;6595458;89;20191;-78
2023/08/08 02:18:15;;;;;;;1999.90;999.90;;;;;;;;;;6589521;89;20298;-79
2023/08/08 02:28:16;;;;;;;1999.90;999.90;;;;;;;;;;6589170;89;20791;-79
2023/08/08 02:38:17;;;;;;;1999.90;999.90;;;;;;;;;;6600008;89;21066;-78
2023/08/08 02:48:18;;;;;;;1999.90;999.90;;;;;;;;;;6603765;89;20223;-78
2023/08/08 02:58:19;;;;;;;1999.90;999.90;;;;;;;;;;6599325;89;20217;-78
2023/08/08 03:08:20;;;;;;;1999.90;999.90;;;;;;;;;;6587969;89;20187;-77
2023/08/08 03:18:22;;;;;;;1999.90;999.90;;;;;;;;;;6587661;89;20323;-78
2023/08/08 03:28:23;;;;;;;1999.90;999.90;;;;;;;;;;6611846;89;20189;-78
2023/08/08 03:38:24;;;;;;;1999.90;999.90;;;;;;;;;;6620283;89;20628;-78
2023/08/08 03:48:25;;;;;;;1999.90;999.90;;;;;;;;;;6591659;89;20266;-77
2023/08/08 03:58:26;;;;;;;1999.90;999.90;;;;;;;;;;6631258;89;20193;-78
2023/08/08 04:08:27;;;;;;;1999.90;999.90;;;;;;;;;;6654360;89;20229;-77
2023/08/08 04:18:28;;;;;;;1999.90;999.90;;;;;;;;;;6601521;89;20701;-77
2023/08/08 04:28:29;;;;;;;1999.90;999.90;;;;;;;;;;6592896;89;20206;-78
2023/08/08 04:38:30;;;;;;;1999.90;999.90;;;;;;;;;;6594247;89;20551;-78
2023/08/08 04:48:32;;;;;;;1999.90;999.90;;;;;;;;;;6585913;89;20206;-77
2023/08/08 04:58:33;;;;;;;1999.90;999.90;;;;;;;;;;6590933;89;20319;-78
2023/08/08 05:08:34;;;;;;;1999.90;999.90;;;;;;;;;;6597731;89;20277;-80
2023/08/08 05:18:35;;;;;;;1999.90;999.90;;;;;;;;;;6641805;89;20253;-79
2023/08/08 05:28:36;;;;;;;1999.90;999.90;;;;;;;;;;6590258;90;20809;-78
2023/08/08 05:38:37;;;;;;;1999.90;999.90;;;;;;;;;;6596216;90;20210;-79
2023/08/08 05:48:38;;;;;;;1999.90;999.90;;;;;;;;;;6604220;89;20164;-78
2023/08/08 05:58:39;;;;;;;1999.90;999.90;;;;;;;;;;6592236;89;20198;-78
2023/08/08 06:08:40;;;;;;;1999.90;999.90;;;;;;;;;;6584602;89;20207;-77
2023/08/08 06:18:42;;;;;;;1999.90;999.90;;;;;;;;;;6586798;89;20202;-76
2023/08/08 06:28:43;;;;;;;1999.90;999.90;;;;;;;;;;6594569;89;20274;-77
2023/08/08 06:38:44;;;;;;;1999.90;999.90;;;;;;;;;;6590183;89;20200;-77
2023/08/08 06:48:45;;;;;;;1999.90;999.90;;;;;;;;;;6585461;89;20291;-77
2023/08/08 06:58:46;;;;;;;1999.90;999.90;;;;;;;;;;6589635;89;20175;-78
2023/08/08 07:08:47;;;;;;;1999.90;999.90;;;;;;;;;;6594895;89;20287;-78
2023/08/08 07:18:49;;;;;;;1999.90;999.90;;;;;;;;;;6596800;89;20209;-77
2023/08/08 07:28:50;;;;;;;1999.90;999.90;;;;;;;;;;6591450;89;20259;-78
2023/08/08 07:38:51;;;;;;;1999.90;999.90;;;;;;;;;;6585917;89;20335;-77
2023/08/08 07:48:52;;;;;;;1999.90;999.90;;;;;;;;;;6585799;89;20191;-77
2023/08/08 07:58:53;;;;;;;1999.90;999.90;;;;;;;;;;6601362;89;20209;-76
2023/08/08 08:09:14;;;;;;;1999.90;999.90;;;;;;;;;;6647042;78;20221;-79
2023/08/08 08:19:15;;;;;;;1999.90;999.90;;;;;;;;;;6706611;88;20186;-79
2023/08/08 08:29:16;;;;;;;1999.90;999.90;;;;;;;;;;6714677;88;20198;-81
2023/08/08 08:39:17;;;;;;;1999.90;999.90;;;;;;;;;;6722428;88;20310;-79
2023/08/08 08:49:19;;;;;;;1999.90;999.90;;;;;;;;;;6724926;88;20271;-79
2023/08/08 08:59:20;;;;;;;1999.90;999.90;;;;;;;;;;6728706;88;20227;-79
2023/08/08 09:09:22;;;;;;;1999.90;999.90;;;;;;;;;;6724916;88;20210;-79
2023/08/08 09:19:24;;;;;;;1999.90;999.90;;;;;;;;;;6722792;88;20283;-79
2023/08/08 09:29:26;;;;;;;1999.90;999.90;;;;;;;;;;6726807;88;20220;-78
2023/08/08 09:39:28;;;;;;;1999.90;999.90;;;;;;;;;;6725979;88;20243;-80
2023/08/08 09:49:31;;;;;;;1999.90;999.90;;;;;;;;;;6705061;88;20176;-78
2023/08/08 09:59:33;;;;;;;1999.90;999.90;;;;;;;;;;6701472;88;20248;-79
2023/08/08 10:09:34;;;;;;;1999.90;999.90;;;;;;;;;;6712086;88;20186;-79
2023/08/08 10:19:36;;;;;;;1999.90;999.90;;;;;;;;;;6709949;88;20229;-79
2023/08/08 10:29:39;;;;;;;1999.90;999.90;;;;;;;;;;6717382;88;20261;-80
2023/08/08 10:39:58;;;;;;;1999.90;999.90;;;;;;;;;;6723148;88;20185;-80
2023/08/08 10:50:06;;;;;;;1999.90;999.90;;;;;;;;;;6734800;88;20207;-80
2023/08/08 11:00:17;;;;;;;1999.90;999.90;;;;;;;;;;6729085;88;20943;-79
2023/08/08 11:10:18;;;;;;;1999.90;999.90;;;;;;;;;;6724282;88;20197;-81
2023/08/08 11:20:19;;;;;;;1999.90;999.90;;;;;;;;;;6717648;88;20236;-80
2023/08/08 11:30:22;;;;;;;1999.90;999.90;;;;;;;;;;6724032;88;20309;-80
2023/08/08 11:40:24;;;;;;;1999.90;999.90;;;;;;;;;;6696929;88;20242;-79
2023/08/08 11:50:27;;;;;;;1999.90;999.90;;;;;;;;;;6690047;89;20295;-80
2023/08/08 12:00:30;;;;;;;1999.90;999.90;;;;;;;;;;6675267;89;20245;-80
2023/08/08 12:10:31;;;;;;;1999.90;999.90;;;;;;;;;;6690626;89;20360;-79
2023/08/08 12:20:35;;;;;;;1999.90;999.90;;;;;;;;;;6688344;89;20214;-79
2023/08/08 12:30:36;;;;;;;1999.90;999.90;;;;;;;;;;6722185;88;20204;-80
2023/08/08 12:40:37;;;;;;;1999.90;999.90;;;;;;;;;;6727434;88;20205;-80
2023/08/08 12:50:38;;;;;;;1999.90;999.90;;;;;;;;;;6736883;88;20201;-81
2023/08/08 13:00:39;;;;;;;1999.90;999.90;;;;;;;;;;6730134;88;20196;-81
2023/08/08 13:10:40;;;;;;;1999.90;999.90;;;;;;;;;;6724668;88;20614;-80
2023/08/08 13:20:41;;;;;;;1999.90;999.90;;;;;;;;;;6720735;88;20216;-79
2023/08/08 13:30:43;;;;;;;1999.90;999.90;;;;;;;;;;6722124;88;20615;-78
2023/08/08 13:40:44;;;;;;;1999.90;999.90;;;;;;;;;;6723243;88;20353;-78
2023/08/08 13:50:45;;;;;;;1999.90;999.90;;;;;;;;;;6720623;88;20228;-79
2023/08/08 14:00:46;;;;;;;1999.90;999.90;;;;;;;;;;6721728;88;20800;-77
2023/08/08 14:10:47;;;;;;;1999.90;999.90;;;;;;;;;;6720396;88;20199;-78
2023/08/08 14:20:48;;;;;;;1999.90;999.90;;;;;;;;;;6718422;88;20742;-79
2023/08/08 14:30:49;;;;;;;1999.90;999.90;;;;;;;;;;6720935;88;20194;-79
2023/08/08 14:40:52;;;;;;;1999.90;999.90;;;;;;;;;;6714588;88;20283;-78
2023/08/08 14:50:53;;;;;;;1999.90;999.90;;;;;;;;;;6727278;88;20283;-79
2023/08/08 15:00:54;;;;;;;1999.90;999.90;;;;;;;;;;6714460;88;20202;-78
2023/08/08 15:10:56;;;;;;;1999.90;999.90;;;;;;;;;;6709529;88;20705;-78
2023/08/08 15:20:57;;;;;;;1999.90;999.90;;;;;;;;;;6710326;88;20610;-78
2023/08/08 15:30:58;;;;;;;1999.90;999.90;;;;;;;;;;6710344;88;20202;-79
2023/08/08 15:41:00;;;;;;;1999.90;999.90;;;;;;;;;;6710978;88;20227;-80
2023/08/08 15:51:01;;;;;;;1999.90;999.90;;;;;;;;;;6709677;88;20225;-79
2023/08/08 16:01:03;;;;;;;1999.90;999.90;;;;;;;;;;6709067;88;20300;-79
2023/08/08 16:11:04;;;;;;;1999.90;999.90;;;;;;;;;;6711689;88;20211;-79
2023/08/08 16:21:05;;;;;;;1999.90;999.90;;;;;;;;;;6712175;88;20185;-79
2023/08/08 16:31:06;;;;;;;1999.90;999.90;;;;;;;;;;6705840;88;20313;-78
2023/08/08 16:41:07;;;;;;;1999.90;999.90;;;;;;;;;;6719143;88;20179;-79
2023/08/08 16:51:09;;;;;;;1999.90;999.90;;;;;;;;;;6713567;88;20584;-79
2023/08/08 17:01:12;;;;;;;1999.90;999.90;;;;;;;;;;6722978;88;20202;-79
2023/08/08 17:11:13;;;;;;;1999.90;999.90;;;;;;;;;;6727171;88;20190;-79
2023/08/08 17:21:14;;;;;;;1999.90;999.90;;;;;;;;;;6710542;88;20191;-78
2023/08/08 17:31:15;;;;;;;1999.90;999.90;;;;;;;;;;6708248;88;20278;-80
2023/08/08 17:41:16;;;;;;;1999.90;999.90;;;;;;;;;;6710068;88;20383;-81
2023/08/08 17:51:17;;;;;;;1999.90;999.90;;;;;;;;;;6715177;88;20264;-80
2023/08/08 18:01:18;;;;;;;1999.90;999.90;;;;;;;;;;6707255;88;20263;-81
2023/08/08 18:11:19;;;;;;;1999.90;999.90;;;;;;;;;;6710117;88;20198;-81
2023/08/08 18:21:20;;;;;;;1999.90;999.90;;;;;;;;;;6708905;88;20201;-81
2023/08/08 18:31:21;;;;;;;1999.90;999.90;;;;;;;;;;6707787;88;20660;-80
2023/08/08 18:41:22;;;;;;;1999.90;999.90;;;;;;;;;;6708487;88;20221;-81
2023/08/08 18:51:23;;;;;;;1999.90;999.90;;;;;;;;;;6704386;88;20203;-80
2023/08/08 19:01:24;;;;;;;1999.90;999.90;;;;;;;;;;6707886;88;20205;-80
2023/08/08 19:11:25;;;;;;;1999.90;999.90;;;;;;;;;;6689756;88;21047;-80
2023/08/08 19:21:26;;;;;;;1999.90;999.90;;;;;;;;;;6689642;88;20214;-80
2023/08/08 19:31:27;;;;;;;1999.90;999.90;;;;;;;;;;6690236;88;20206;-80
2023/08/08 19:41:28;;;;;;;1999.90;999.90;;;;;;;;;;6688245;88;20233;-80
2023/08/08 19:51:29;;;;;;;1999.90;999.90;;;;;;;;;;6690216;89;20746;-80
2023/08/08 20:01:30;;;;;;;1999.90;999.90;;;;;;;;;;6690163;89;20256;-80
2023/08/08 20:11:52;;;;;;;1999.90;999.90;;;;;;;;;;6702039;77;20281;-80
2023/08/08 20:21:53;;;;;;;1999.90;999.90;;;;;;;;;;6687554;89;20209;-81
2023/08/08 20:31:54;;;;;;;1999.90;999.90;;;;;;;;;;6688044;89;20805;-79
2023/08/08 20:41:55;;;;;;;1999.90;999.90;;;;;;;;;;6686146;89;20196;-80
2023/08/08 20:51:57;;;;;;;1999.90;999.90;;;;;;;;;;6676550;89;20323;-80
2023/08/08 21:01:58;;;;;;;1999.90;999.90;;;;;;;;;;6665248;89;21055;-80
2023/08/08 21:11:59;;;;;;;1999.90;999.90;;;;;;;;;;6679128;89;20211;-79
2023/08/08 21:22:00;;;;;;;1999.90;999.90;;;;;;;;;;6678369;89;20223;-79
2023/08/08 21:32:01;;;;;;;1999.90;999.90;;;;;;;;;;6678367;89;20565;-79
2023/08/08 21:42:03;;;;;;;1999.90;999.90;;;;;;;;;;6680392;89;20199;-80
2023/08/08 21:52:04;;;;;;;1999.90;999.90;;;;;;;;;;6678493;89;20621;-80
2023/08/08 22:02:05;;;;;;;1999.90;999.90;;;;;;;;;;6677020;89;20168;-79
2023/08/08 22:12:06;;;;;;;1999.90;999.90;;;;;;;;;;6677432;88;20808;-79
2023/08/08 22:22:07;;;;;;;1999.90;999.90;;;;;;;;;;6687367;89;20193;-79
2023/08/08 22:32:08;;;;;;;1999.90;999.90;;;;;;;;;;6675687;89;20199;-81
2023/08/08 22:42:10;;;;;;;1999.90;999.90;;;;;;;;;;6675353;89;20303;-80
2023/08/08 22:52:11;;;;;;;1999.90;999.90;;;;;;;;;;6672002;89;20764;-80
2023/08/08 23:02:12;;;;;;;1999.90;999.90;;;;;;;;;;6672067;89;20237;-80
2023/08/08 23:12:13;;;;;;;1999.90;999.90;;;;;;;;;;6671540;88;20340;-80
2023/08/08 23:22:14;;;;;;;1999.90;999.90;;;;;;;;;;6671518;89;20475;-80
2023/08/08 23:32:15;;;;;;;1999.90;999.90;;;;;;;;;;6671666;89;20954;-81
2023/08/08 23:42:16;;;;;;;1999.90;999.90;;;;;;;;;;6680521;89;20241;-80
2023/08/08 23:52:17;;;;;;;1999.90;999.90;;;;;;;;;;6674485;89;20295;-79
